createdAt,value
2023-01-08T00:00:54.000Z,15.8
2023-01-08T00:03:20.000Z,13.97
2023-01-08T00:05:45.000Z,13.23
2023-01-08T00:08:12.000Z,15.08
2023-01-08T00:10:38.000Z,14.5
2023-01-08T00:13:03.000Z,13.5
2023-01-08T00:15:29.000Z,14.78
2023-01-08T00:17:54.000Z,14.63
2023-01-08T00:20:22.000Z,14.25
2023-01-08T00:22:46.000Z,13.58
2023-01-08T00:25:13.000Z,12.83
2023-01-08T00:27:36.000Z,13.05
2023-01-08T00:30:03.000Z,11.63
2023-01-08T00:32:28.000Z,10.1
2023-01-08T00:34:53.000Z,8.33
2023-01-08T00:37:18.000Z,7.67
2023-01-08T00:39:44.000Z,8.47
2023-01-08T00:42:12.000Z,6.63
2023-01-08T00:44:36.000Z,6.45
2023-01-08T00:47:01.000Z,5.7
2023-01-08T00:49:28.000Z,6.1
2023-01-08T00:51:53.000Z,5.62
2023-01-08T00:54:20.000Z,5.1
2023-01-08T00:56:44.000Z,4.9
2023-01-08T00:59:10.000Z,5.45
2023-01-08T01:01:45.000Z,6.2
2023-01-08T01:04:10.000Z,5.63
2023-01-08T01:06:26.000Z,5.78
2023-01-08T01:08:52.000Z,7.12
2023-01-08T01:11:18.000Z,6.53
2023-01-08T01:13:43.000Z,6.9
2023-01-08T01:16:09.000Z,7.8
2023-01-08T01:18:34.000Z,8.03
2023-01-08T01:21:00.000Z,8.8
2023-01-08T01:23:27.000Z,8.05
2023-01-08T01:25:53.000Z,8.2
2023-01-08T01:28:20.000Z,9
2023-01-08T01:30:45.000Z,9.2
2023-01-08T01:33:10.000Z,9.18
2023-01-08T01:35:35.000Z,9.33
2023-01-08T01:38:01.000Z,9.3
2023-01-08T01:40:26.000Z,9.6
2023-01-08T01:42:52.000Z,8.4
2023-01-08T01:45:17.000Z,9.2
2023-01-08T01:47:44.000Z,9.15
2023-01-08T01:50:09.000Z,8.8
2023-01-08T01:52:34.000Z,8.63
2023-01-08T01:55:00.000Z,9.03
2023-01-08T01:57:27.000Z,8.05
2023-01-08T01:59:52.000Z,8.23
2023-01-08T02:02:17.000Z,8.17
2023-01-08T02:04:43.000Z,7.7
2023-01-08T02:07:09.000Z,7.28
2023-01-08T02:09:36.000Z,7.53
2023-01-08T02:12:00.000Z,7.7
2023-01-08T02:14:26.000Z,7.15
2023-01-08T02:16:50.000Z,7.85
2023-01-08T02:19:17.000Z,7.23
2023-01-08T02:21:42.000Z,7.7
2023-01-08T02:24:08.000Z,7.37
2023-01-08T02:26:36.000Z,7.13
2023-01-08T02:28:59.000Z,7.53
2023-01-08T02:31:25.000Z,7.35
2023-01-08T02:33:51.000Z,7.23
2023-01-08T02:36:16.000Z,7.6
2023-01-08T02:38:43.000Z,8.08
2023-01-08T02:41:08.000Z,8.07
2023-01-08T02:43:34.000Z,7.67
2023-01-08T02:46:00.000Z,7.4
2023-01-08T02:48:25.000Z,7.42
2023-01-08T02:50:51.000Z,7.42
2023-01-08T02:53:17.000Z,7.67
2023-01-08T02:55:42.000Z,7.55
2023-01-08T02:58:09.000Z,7.67
2023-01-08T03:00:45.000Z,7.6
2023-01-08T03:03:00.000Z,7.7
2023-01-08T03:05:26.000Z,7.22
2023-01-08T03:07:51.000Z,7.47
2023-01-08T03:10:17.000Z,6.8
2023-01-08T03:12:41.000Z,6.72
2023-01-08T03:15:07.000Z,6.9
2023-01-08T03:17:33.000Z,6.8
2023-01-08T03:19:59.000Z,7.27
2023-01-08T03:22:25.000Z,7.7
2023-01-08T03:24:50.000Z,7.47
2023-01-08T03:27:15.000Z,7.4
2023-01-08T03:29:41.000Z,7.75
2023-01-08T03:32:08.000Z,7.22
2023-01-08T03:34:32.000Z,7.33
2023-01-08T03:36:58.000Z,6.9
2023-01-08T03:39:24.000Z,6.8
2023-01-08T03:41:49.000Z,6.9
2023-01-08T03:44:15.000Z,6.4
2023-01-08T03:46:42.000Z,7.7
2023-01-08T03:49:06.000Z,7.87
2023-01-08T03:51:31.000Z,8.4
2023-01-08T03:53:57.000Z,8.2
2023-01-08T03:56:24.000Z,7.65
2023-01-08T03:58:49.000Z,7.25
2023-01-08T04:01:17.000Z,6.9
2023-01-08T04:03:41.000Z,7
2023-01-08T04:06:07.000Z,6.53
2023-01-08T04:08:32.000Z,7.7
2023-01-08T04:10:59.000Z,8
2023-01-08T04:13:24.000Z,8.27
2023-01-08T04:15:50.000Z,9.9
2023-01-08T04:18:17.000Z,9.33
2023-01-08T04:20:41.000Z,10.9
2023-01-08T04:23:08.000Z,11.73
2023-01-08T04:25:33.000Z,11.47
2023-01-08T04:27:58.000Z,11.4
2023-01-08T04:30:26.000Z,12.3
2023-01-08T04:32:49.000Z,13.4
2023-01-08T04:35:15.000Z,13.43
2023-01-08T04:37:41.000Z,11.33
2023-01-08T04:40:09.000Z,10.73
2023-01-08T04:42:34.000Z,10.35
2023-01-08T04:44:58.000Z,10
2023-01-08T04:47:25.000Z,10.35
2023-01-08T04:49:52.000Z,10.5
2023-01-08T04:52:18.000Z,10.93
2023-01-08T04:54:43.000Z,10.2
2023-01-08T04:57:10.000Z,10.5
2023-01-08T04:59:36.000Z,9.6
2023-01-08T05:02:06.000Z,9.5
2023-01-08T05:04:27.000Z,9.87
2023-01-08T05:06:52.000Z,10.18
2023-01-08T05:09:18.000Z,10.2
2023-01-08T05:11:45.000Z,10.27
2023-01-08T05:14:09.000Z,10.48
2023-01-08T05:16:35.000Z,10.2
2023-01-08T05:19:00.000Z,9.83
2023-01-08T05:21:26.000Z,8.98
2023-01-08T05:23:52.000Z,8.05
2023-01-08T05:26:17.000Z,8.3
2023-01-08T05:28:42.000Z,8.1
2023-01-08T05:31:10.000Z,8.53
2023-01-08T05:33:37.000Z,7.92
2023-01-08T05:36:00.000Z,8.3
2023-01-08T05:38:26.000Z,7.35
2023-01-08T05:40:53.000Z,8.1
2023-01-08T05:43:18.000Z,8.43
2023-01-08T05:45:44.000Z,8.17
2023-01-08T05:48:10.000Z,8.27
2023-01-08T05:50:35.000Z,8.05
2023-01-08T05:53:00.000Z,7.97
2023-01-08T05:55:26.000Z,8.17
2023-01-08T05:57:52.000Z,8.33
2023-01-08T06:00:30.000Z,8.23
2023-01-08T06:02:53.000Z,8.43
2023-01-08T06:05:08.000Z,8.4
2023-01-08T06:07:34.000Z,8.53
2023-01-08T06:10:01.000Z,8.13
2023-01-08T06:12:25.000Z,8.4
2023-01-08T06:14:52.000Z,9.28
2023-01-08T06:17:19.000Z,8.93
2023-01-08T06:19:43.000Z,9.03
2023-01-08T06:22:09.000Z,9.18
2023-01-08T06:24:34.000Z,8.8
2023-01-08T06:26:59.000Z,9.4
2023-01-08T06:29:25.000Z,9.28
2023-01-08T06:31:50.000Z,8.27
2023-01-08T06:34:17.000Z,7.3
2023-01-08T06:36:42.000Z,6.9
2023-01-08T06:39:07.000Z,7.08
2023-01-08T06:41:34.000Z,7.58
2023-01-08T06:44:00.000Z,6.8
2023-01-08T06:46:24.000Z,7.5
2023-01-08T06:48:50.000Z,7.15
2023-01-08T06:51:17.000Z,7.13
2023-01-08T06:53:41.000Z,7.17
2023-01-08T06:56:07.000Z,7.28
2023-01-08T06:58:33.000Z,7.7
2023-01-08T07:01:06.000Z,8.5
2023-01-08T07:03:24.000Z,8.23
2023-01-08T07:05:50.000Z,8.5
2023-01-08T07:08:15.000Z,8.33
2023-01-08T07:10:40.000Z,8.5
2023-01-08T07:13:08.000Z,8.1
2023-01-08T07:15:34.000Z,8.33
2023-01-08T07:17:58.000Z,8.53
2023-01-08T07:20:24.000Z,8.33
2023-01-08T07:22:52.000Z,8.8
2023-01-08T07:25:17.000Z,9.07
2023-01-08T07:27:42.000Z,8.8
2023-01-08T07:30:11.000Z,8.5
2023-01-08T07:32:33.000Z,8.47
2023-01-08T07:34:59.000Z,8.2
2023-01-08T07:37:24.000Z,8.9
2023-01-08T07:39:51.000Z,8.43
2023-01-08T07:42:16.000Z,11.4
2023-01-08T07:44:41.000Z,15.23
2023-01-08T07:47:08.000Z,19.35
2023-01-08T07:49:33.000Z,17.5
2023-01-08T07:51:59.000Z,15.68
2023-01-08T07:54:26.000Z,12.23
2023-01-08T07:56:51.000Z,10.8
2023-01-08T07:59:21.000Z,11.68
2023-01-08T08:02:05.000Z,12.93
2023-01-08T08:04:08.000Z,11.73
2023-01-08T08:06:33.000Z,11.18
2023-01-08T08:08:59.000Z,11.6
2023-01-08T08:11:25.000Z,11.8
2023-01-08T08:13:50.000Z,11.6
2023-01-08T08:16:16.000Z,11.07
2023-01-08T08:18:42.000Z,12.33
2023-01-08T08:21:07.000Z,12.75
2023-01-08T08:23:33.000Z,13.8
2023-01-08T08:25:59.000Z,12.18
2023-01-08T08:28:25.000Z,12.18
2023-01-08T08:30:51.000Z,11.12
2023-01-08T08:33:18.000Z,12.47
2023-01-08T08:35:44.000Z,12.35
2023-01-08T08:38:11.000Z,11.8
2023-01-08T08:40:35.000Z,11.27
2023-01-08T08:43:03.000Z,12.27
2023-01-08T08:45:28.000Z,12.4
2023-01-08T08:47:52.000Z,12.33
2023-01-08T08:50:18.000Z,11.67
2023-01-08T08:52:43.000Z,12.18
2023-01-08T08:55:11.000Z,12.33
2023-01-08T08:57:35.000Z,11.9
2023-01-08T09:00:02.000Z,11.93
2023-01-08T09:02:26.000Z,12.6
2023-01-08T09:04:52.000Z,13
2023-01-08T09:07:19.000Z,13
2023-01-08T09:09:45.000Z,12.1
2023-01-08T09:12:11.000Z,12.25
2023-01-08T09:14:36.000Z,13.68
2023-01-08T09:17:03.000Z,13.65
2023-01-08T09:19:28.000Z,12.53
2023-01-08T09:21:54.000Z,13.15
2023-01-08T09:24:20.000Z,13.97
2023-01-08T09:26:45.000Z,14
2023-01-08T09:29:12.000Z,15.13
2023-01-08T09:31:37.000Z,15.43
2023-01-08T09:34:04.000Z,14.55
2023-01-08T09:36:30.000Z,13.57
2023-01-08T09:38:57.000Z,12.77
2023-01-08T09:41:22.000Z,11.53
2023-01-08T09:43:46.000Z,10.88
2023-01-08T09:46:12.000Z,9.93
2023-01-08T09:48:38.000Z,10.4
2023-01-08T09:53:31.000Z,9.8
2023-01-08T09:53:31.000Z,9.8
2023-01-08T09:55:55.000Z,8.5
2023-01-08T09:58:21.000Z,8.1
2023-01-08T10:00:56.000Z,8.05
2023-01-08T10:03:15.000Z,7.53
2023-01-08T10:05:40.000Z,8.48
2023-01-08T10:08:07.000Z,8.88
2023-01-08T10:10:33.000Z,8.45
2023-01-08T10:12:59.000Z,8.58
2023-01-08T10:15:27.000Z,9.2
2023-01-08T10:17:51.000Z,9.38
2023-01-08T10:20:18.000Z,9.7
2023-01-08T10:22:44.000Z,10.25
2023-01-08T10:25:10.000Z,11.97
2023-01-08T10:27:35.000Z,14.5
2023-01-08T10:30:01.000Z,19.02
2023-01-08T10:32:29.000Z,18.3
2023-01-08T10:34:53.000Z,19.25
2023-01-08T10:37:19.000Z,19.3
2023-01-08T10:39:46.000Z,18.25
2023-01-08T10:42:14.000Z,18.92
2023-01-08T10:44:52.000Z,19.3
2023-01-08T10:47:10.000Z,21.23
2023-01-08T10:49:36.000Z,20.45
2023-01-08T10:52:04.000Z,20.45
2023-01-08T10:54:29.000Z,18.48
2023-01-08T10:56:57.000Z,16.45
2023-01-08T10:59:25.000Z,16.55
2023-01-08T11:01:53.000Z,15.3
2023-01-08T11:04:18.000Z,16.57
2023-01-08T11:06:44.000Z,18.12
2023-01-08T11:09:12.000Z,18.3
2023-01-08T11:11:37.000Z,18.02
2023-01-08T11:14:06.000Z,17.95
2023-01-08T11:16:32.000Z,17.25
2023-01-08T11:18:59.000Z,16.85
2023-01-08T11:21:26.000Z,17.3
2023-01-08T11:23:56.000Z,16.65
2023-01-08T11:26:18.000Z,16.15
2023-01-08T11:28:43.000Z,16.75
2023-01-08T11:31:11.000Z,17.77
2023-01-08T11:33:36.000Z,17.97
2023-01-08T11:36:02.000Z,17.2
2023-01-08T11:38:29.000Z,17.5
2023-01-08T11:40:52.000Z,17.17
2023-01-08T11:43:19.000Z,15.15
2023-01-08T11:45:44.000Z,14.47
2023-01-08T11:48:11.000Z,14.95
2023-01-08T11:50:37.000Z,14.85
2023-01-08T11:53:01.000Z,14.15
2023-01-08T11:55:29.000Z,13.3
2023-01-08T11:57:54.000Z,13.3
2023-01-08T12:00:32.000Z,11.5
2023-01-08T12:02:59.000Z,13.53
2023-01-08T12:05:11.000Z,13.93
2023-01-08T12:07:37.000Z,15.88
2023-01-08T12:10:04.000Z,14.18
2023-01-08T12:12:29.000Z,13.77
2023-01-08T12:14:54.000Z,13.2
2023-01-08T12:17:22.000Z,11.18
2023-01-08T12:19:47.000Z,11.2
2023-01-08T12:22:12.000Z,11.63
2023-01-08T12:24:38.000Z,11.45
2023-01-08T12:27:04.000Z,11
2023-01-08T12:29:31.000Z,11.83
2023-01-08T12:31:55.000Z,10.95
2023-01-08T12:34:21.000Z,10.8
2023-01-08T12:36:47.000Z,10.2
2023-01-08T12:39:13.000Z,10.13
2023-01-08T12:41:39.000Z,9.53
2023-01-08T12:44:05.000Z,8.97
2023-01-08T12:46:30.000Z,8.57
2023-01-08T12:48:57.000Z,8.43
2023-01-08T12:51:29.000Z,8.6
2023-01-08T12:53:49.000Z,8.7
2023-01-08T12:56:14.000Z,9.8
2023-01-08T12:58:40.000Z,7.4
2023-01-08T13:01:09.000Z,7.5
2023-01-08T13:03:34.000Z,7.12
2023-01-08T13:05:57.000Z,6.85
2023-01-08T13:08:23.000Z,6.95
2023-01-08T13:10:50.000Z,7.03
2023-01-08T13:13:15.000Z,6.92
2023-01-08T13:15:43.000Z,7.2
2023-01-08T13:18:09.000Z,6.85
2023-01-08T13:20:35.000Z,6.83
2023-01-08T13:23:00.000Z,6.87
2023-01-08T13:25:27.000Z,7.3
2023-01-08T13:27:53.000Z,6.95
2023-01-08T13:30:21.000Z,6.75
2023-01-08T13:32:45.000Z,6.93
2023-01-08T13:35:12.000Z,6.9
2023-01-08T13:37:38.000Z,6.35
2023-01-08T13:40:06.000Z,7.2
2023-01-08T13:42:31.000Z,7.05
2023-01-08T13:44:59.000Z,6.8
2023-01-08T13:47:22.000Z,7.03
2023-01-08T13:49:49.000Z,6.9
2023-01-08T13:52:15.000Z,6.67
2023-01-08T13:54:40.000Z,6.43
2023-01-08T13:57:07.000Z,6.87
2023-01-08T13:59:37.000Z,5.8
2023-01-08T14:02:01.000Z,6.33
2023-01-08T14:04:28.000Z,6.3
2023-01-08T14:06:53.000Z,5.8
2023-01-08T14:09:19.000Z,5.3
2023-01-08T14:11:45.000Z,5.9
2023-01-08T14:14:11.000Z,5.7
2023-01-08T14:16:38.000Z,5.3
2023-01-08T14:19:05.000Z,5.1
2023-01-08T14:21:30.000Z,4.85
2023-01-08T14:23:56.000Z,4.9
2023-01-08T14:26:22.000Z,4.85
2023-01-08T14:28:49.000Z,4.67
2023-01-08T14:31:15.000Z,4.47
2023-01-08T14:33:41.000Z,4.45
2023-01-08T14:36:08.000Z,4.67
2023-01-08T14:38:33.000Z,4.3
2023-01-08T14:41:00.000Z,4.3
2023-01-08T14:43:26.000Z,4.22
2023-01-08T14:45:51.000Z,4.3
2023-01-08T14:48:18.000Z,3.97
2023-01-08T14:50:44.000Z,4.28
2023-01-08T14:53:11.000Z,4.33
2023-01-08T14:55:36.000Z,3.98
2023-01-08T14:58:01.000Z,3.7
2023-01-08T15:00:44.000Z,4.1
2023-01-08T15:02:53.000Z,4.22
2023-01-08T15:05:19.000Z,3.9
2023-01-08T15:07:46.000Z,4.27
2023-01-08T15:10:13.000Z,3.8
2023-01-08T15:12:38.000Z,3.7
2023-01-08T15:15:05.000Z,3.6
2023-01-08T15:17:51.000Z,3.67
2023-01-08T15:20:09.000Z,3.57
2023-01-08T15:22:22.000Z,3.55
2023-01-08T15:24:51.000Z,3.72
2023-01-08T15:27:15.000Z,3.6
2023-01-08T15:29:39.000Z,3.62
2023-01-08T15:32:05.000Z,4.15
2023-01-08T15:34:31.000Z,4.2
2023-01-08T15:36:57.000Z,3.8
2023-01-08T15:39:23.000Z,3.55
2023-01-08T15:41:49.000Z,3.6
2023-01-08T15:44:14.000Z,3.83
2023-01-08T15:49:08.000Z,3.63
2023-01-08T15:49:08.000Z,3.63
2023-01-08T15:51:32.000Z,3.35
2023-01-08T15:53:57.000Z,3.3
2023-01-08T15:56:23.000Z,3.62
2023-01-08T15:58:49.000Z,3.35
2023-01-08T16:01:54.000Z,2.98
2023-01-08T16:03:49.000Z,3.47
2023-01-08T16:06:08.000Z,3.1
2023-01-08T16:08:33.000Z,3.25
2023-01-08T16:10:59.000Z,3
2023-01-08T16:13:24.000Z,3.1
2023-01-08T16:15:49.000Z,3.2
2023-01-08T16:18:15.000Z,2.9
2023-01-08T16:20:41.000Z,2.83
2023-01-08T16:23:07.000Z,2.9
2023-01-08T16:25:32.000Z,2.7
2023-01-08T16:27:58.000Z,2.6
2023-01-08T16:30:27.000Z,2.7
2023-01-08T16:32:49.000Z,2.77
2023-01-08T16:35:16.000Z,2.9
2023-01-08T16:37:41.000Z,2.7
2023-01-08T16:40:09.000Z,2.5
2023-01-08T16:42:34.000Z,2.5
2023-01-08T16:44:58.000Z,3
2023-01-08T16:47:26.000Z,3.2
2023-01-08T16:49:51.000Z,3
2023-01-08T16:52:17.000Z,2.95
2023-01-08T16:54:43.000Z,3.05
2023-01-08T16:57:10.000Z,2.67
2023-01-08T16:59:34.000Z,2.83
2023-01-08T17:02:00.000Z,2.77
2023-01-08T17:04:27.000Z,3.05
2023-01-08T17:06:51.000Z,3.4
2023-01-08T17:09:17.000Z,3.27
2023-01-08T17:11:43.000Z,3.13
2023-01-08T17:14:08.000Z,2.9
2023-01-08T17:16:34.000Z,2.98
2023-01-08T17:19:00.000Z,2.67
2023-01-08T17:21:26.000Z,2.73
2023-01-08T17:23:51.000Z,2.65
2023-01-08T17:26:17.000Z,2.52
2023-01-08T17:28:42.000Z,2.6
2023-01-08T17:31:09.000Z,2.43
2023-01-08T17:33:34.000Z,2.2
2023-01-08T17:36:01.000Z,2.3
2023-01-08T17:38:26.000Z,2.3
2023-01-08T17:40:52.000Z,2.7
2023-01-08T17:43:28.000Z,2.45
2023-01-08T17:45:44.000Z,2.17
2023-01-08T17:48:10.000Z,2
2023-01-08T17:50:38.000Z,2.37
2023-01-08T17:53:02.000Z,2.27
2023-01-08T17:55:27.000Z,2.27
2023-01-08T17:57:52.000Z,2.27
2023-01-08T18:00:44.000Z,2.17
2023-01-08T18:02:45.000Z,2.33
2023-01-08T18:05:11.000Z,1.9
2023-01-08T18:07:36.000Z,2.1
2023-01-08T18:10:02.000Z,2
2023-01-08T18:12:28.000Z,1.85
2023-01-08T18:14:53.000Z,1.9
2023-01-08T18:17:20.000Z,1.8
2023-01-08T18:19:46.000Z,1.9
2023-01-08T18:22:15.000Z,1.8
2023-01-08T18:24:37.000Z,2.2
2023-01-08T18:27:03.000Z,1.92
2023-01-08T18:29:28.000Z,2
2023-01-08T18:31:55.000Z,1.8
2023-01-08T18:34:20.000Z,1.8
2023-01-08T18:36:46.000Z,1.93
2023-01-08T18:39:12.000Z,2.05
2023-01-08T18:48:57.000Z,1.67
2023-01-08T18:51:21.000Z,1.73
2023-01-08T18:53:51.000Z,1.77
2023-01-08T18:56:21.000Z,1.87
2023-01-08T18:58:38.000Z,1.87
2023-01-08T19:01:05.000Z,1.72
2023-01-08T19:03:31.000Z,1.77
2023-01-08T19:05:55.000Z,1.6
2023-01-08T19:08:22.000Z,1.7
2023-01-08T19:10:50.000Z,1.9
2023-01-08T19:13:15.000Z,1.77
2023-01-08T19:15:41.000Z,2.1
2023-01-08T19:18:06.000Z,1.67
2023-01-08T19:20:31.000Z,1.92
2023-01-08T19:22:57.000Z,1.6
2023-01-08T19:25:23.000Z,1.67
2023-01-08T19:27:49.000Z,1.7
2023-01-08T19:30:24.000Z,1.82
2023-01-08T19:32:39.000Z,1.9
2023-01-08T19:35:04.000Z,2.1
2023-01-08T19:37:31.000Z,1.6
2023-01-08T19:39:57.000Z,1.9
2023-01-08T19:42:22.000Z,1.9
2023-01-08T19:44:48.000Z,1.9
2023-01-08T19:47:14.000Z,1.9
2023-01-08T19:49:39.000Z,1.92
2023-01-08T19:52:08.000Z,2.1
2023-01-08T19:54:31.000Z,2.05
2023-01-08T19:56:57.000Z,1.9
2023-01-08T19:59:27.000Z,2.17
2023-01-08T20:01:49.000Z,2.1
2023-01-08T20:04:14.000Z,2
2023-01-08T20:06:40.000Z,1.75
2023-01-08T20:09:06.000Z,1.95
2023-01-08T20:11:31.000Z,2.13
2023-01-08T20:13:57.000Z,2.2
2023-01-08T20:16:22.000Z,2.17
2023-01-08T20:18:50.000Z,1.87
2023-01-08T20:21:14.000Z,2.1
2023-01-08T20:23:48.000Z,2.1
2023-01-08T20:26:07.000Z,2.03
2023-01-08T20:28:33.000Z,2.2
2023-01-08T20:30:58.000Z,2.2
2023-01-08T20:33:24.000Z,2.65
2023-01-08T20:35:49.000Z,2.4
2023-01-08T20:38:15.000Z,2.6
2023-01-08T20:40:43.000Z,2.87
2023-01-08T20:43:08.000Z,3.05
2023-01-08T20:45:34.000Z,3.1
2023-01-08T20:48:00.000Z,3.4
2023-01-08T20:50:25.000Z,3.43
2023-01-08T20:52:51.000Z,3.5
2023-01-08T20:55:16.000Z,3.17
2023-01-08T20:57:42.000Z,3.62
2023-01-08T21:00:11.000Z,4.12
2023-01-08T21:02:34.000Z,5
2023-01-08T21:04:59.000Z,5.6
2023-01-08T21:07:25.000Z,6.15
2023-01-08T21:09:51.000Z,10.3
2023-01-08T21:12:18.000Z,10.2
2023-01-08T21:14:42.000Z,11.07
2023-01-08T21:17:08.000Z,9.93
2023-01-08T21:19:35.000Z,8.58
2023-01-08T21:22:00.000Z,7.4
2023-01-08T21:24:26.000Z,6.8
2023-01-08T21:26:51.000Z,5.87
2023-01-08T21:29:18.000Z,5.83
2023-01-08T21:31:42.000Z,5.8
2023-01-08T21:34:09.000Z,6.4
2023-01-08T21:36:49.000Z,6.2
2023-01-08T21:39:00.000Z,5.97
2023-01-08T21:41:25.000Z,5.53
2023-01-08T21:43:52.000Z,5.23
2023-01-08T21:46:20.000Z,4.73
2023-01-08T21:48:43.000Z,4.77
2023-01-08T21:51:11.000Z,4.43
2023-01-08T21:53:35.000Z,4.12
2023-01-08T21:56:00.000Z,4.2
2023-01-08T21:58:30.000Z,4.1
2023-01-08T22:01:03.000Z,4.3
2023-01-08T22:03:19.000Z,5.37
2023-01-08T22:05:45.000Z,6.2
2023-01-08T22:08:11.000Z,5.92
2023-01-08T22:10:37.000Z,6.03
2023-01-08T22:13:02.000Z,5.9
2023-01-08T22:15:27.000Z,5.22
2023-01-08T22:17:56.000Z,5.47
2023-01-08T22:20:20.000Z,5.67
2023-01-08T22:22:45.000Z,6.37
2023-01-08T22:25:23.000Z,5.63
2023-01-08T22:27:36.000Z,6.4
2023-01-08T22:30:02.000Z,5.62
2023-01-08T22:32:28.000Z,5.8
2023-01-08T22:34:53.000Z,5.25
2023-01-08T22:37:20.000Z,5.4
2023-01-08T22:39:44.000Z,5.87
2023-01-08T22:42:12.000Z,5.9
2023-01-08T22:44:36.000Z,6
2023-01-08T22:47:03.000Z,5.8
2023-01-08T22:49:30.000Z,6.2
2023-01-08T22:51:55.000Z,6.22
2023-01-08T22:54:32.000Z,6.5
2023-01-08T22:56:46.000Z,6.35
2023-01-08T22:59:12.000Z,6.53
2023-01-08T23:01:51.000Z,6.1
2023-01-08T23:04:03.000Z,6.43
2023-01-08T23:06:29.000Z,6.4
2023-01-08T23:08:55.000Z,6.85
2023-01-08T23:11:22.000Z,6.6
2023-01-08T23:13:46.000Z,6.53
2023-01-08T23:16:13.000Z,6.28
2023-01-08T23:18:37.000Z,6.4
2023-01-08T23:21:04.000Z,6.43
2023-01-08T23:23:30.000Z,6.2
2023-01-08T23:25:56.000Z,5.67
2023-01-08T23:28:21.000Z,6
2023-01-08T23:30:48.000Z,5.4
2023-01-08T23:33:13.000Z,5.1
2023-01-08T23:35:39.000Z,5.45
2023-01-08T23:38:06.000Z,4.8
2023-01-08T23:40:32.000Z,5.2
2023-01-08T23:42:57.000Z,4.53
2023-01-08T23:45:24.000Z,4.62
2023-01-08T23:47:50.000Z,4.65
2023-01-08T23:50:15.000Z,4.53
2023-01-08T23:52:41.000Z,4.15
2023-01-08T23:55:08.000Z,4.08
2023-01-08T23:57:33.000Z,4.1
2023-01-08T23:59:59.000Z,4.15
